sensor_id;sensor_type;location;lat;lon;timestamp;P1;durP1;ratioP1;P2;durP2;ratioP2
48621;SDS011;34421;48.944;9.460;2023-08-24T00:01:14;2.80;;;2.30;;
48621;SDS011;34421;48.944;9.460;2023-08-24T00:03:41;4.32;;;2.75;;
48621;SDS011;34421;48.944;9.460;2023-08-24T00:06:06;4.70;;;2.72;;
48621;SDS011;34421;48.944;9.460;2023-08-24T00:08:32;3.75;;;2.47;;
48621;SDS011;34421;48.944;9.460;2023-08-24T00:10:57;3.28;;;2.30;;
48621;SDS011;34421;48.944;9.460;2023-08-24T00:13:23;4.35;;;2.40;;
48621;SDS011;34421;48.944;9.460;2023-08-24T00:15:48;3.05;;;2.28;;
48621;SDS011;34421;48.944;9.460;2023-08-24T00:18:14;3.33;;;2.38;;
48621;SDS011;34421;48.944;9.460;2023-08-24T00:20:39;4.22;;;2.60;;
48621;SDS011;34421;48.944;9.460;2023-08-24T00:23:04;2.92;;;2.17;;
48621;SDS011;34421;48.944;9.460;2023-08-24T00:25:30;3.03;;;2.17;;
48621;SDS011;34421;48.944;9.460;2023-08-24T00:27:56;3.55;;;2.30;;
48621;SDS011;34421;48.944;9.460;2023-08-24T00:30:22;4.35;;;2.22;;
48621;SDS011;34421;48.944;9.460;2023-08-24T00:32:48;5.57;;;3.17;;
48621;SDS011;34421;48.944;9.460;2023-08-24T00:35:13;4.68;;;2.80;;
48621;SDS011;34421;48.944;9.460;2023-08-24T00:37:39;3.03;;;2.13;;
48621;SDS011;34421;48.944;9.460;2023-08-24T00:40:06;3.40;;;2.35;;
48621;SDS011;34421;48.944;9.460;2023-08-24T00:42:41;3.00;;;2.20;;
48621;SDS011;34421;48.944;9.460;2023-08-24T00:45:13;2.65;;;2.08;;
48621;SDS011;34421;48.944;9.460;2023-08-24T00:47:39;2.80;;;2.05;;
48621;SDS011;34421;48.944;9.460;2023-08-24T00:50:07;3.00;;;2.22;;
48621;SDS011;34421;48.944;9.460;2023-08-24T00:52:33;4.15;;;2.40;;
48621;SDS011;34421;48.944;9.460;2023-08-24T00:55:02;3.80;;;2.22;;
48621;SDS011;34421;48.944;9.460;2023-08-24T00:57:28;3.28;;;2.10;;
48621;SDS011;34421;48.944;9.460;2023-08-24T00:59:57;2.25;;;1.70;;
48621;SDS011;34421;48.944;9.460;2023-08-24T01:02:24;2.72;;;1.77;;
48621;SDS011;34421;48.944;9.460;2023-08-24T01:04:50;3.08;;;2.08;;
48621;SDS011;34421;48.944;9.460;2023-08-24T01:07:15;2.45;;;1.63;;
48621;SDS011;34421;48.944;9.460;2023-08-24T01:09:42;4.03;;;2.28;;
48621;SDS011;34421;48.944;9.460;2023-08-24T01:12:12;3.42;;;1.90;;
48621;SDS011;34421;48.944;9.460;2023-08-24T01:17:28;3.15;;;1.98;;
48621;SDS011;34421;48.944;9.460;2023-08-24T01:19:55;2.53;;;1.80;;
48621;SDS011;34421;48.944;9.460;2023-08-24T01:25:15;3.85;;;2.38;;
48621;SDS011;34421;48.944;9.460;2023-08-24T01:27:41;2.47;;;1.88;;
48621;SDS011;34421;48.944;9.460;2023-08-24T01:30:08;4.32;;;2.38;;
48621;SDS011;34421;48.944;9.460;2023-08-24T01:32:35;4.90;;;2.20;;
48621;SDS011;34421;48.944;9.460;2023-08-24T01:35:02;2.83;;;2.10;;
48621;SDS011;34421;48.944;9.460;2023-08-24T01:37:28;4.78;;;2.25;;
48621;SDS011;34421;48.944;9.460;2023-08-24T01:40:33;3.13;;;2.25;;
48621;SDS011;34421;48.944;9.460;2023-08-24T01:45:19;3.00;;;2.10;;
48621;SDS011;34421;48.944;9.460;2023-08-24T01:47:49;2.88;;;2.08;;
48621;SDS011;34421;48.944;9.460;2023-08-24T01:50:17;3.67;;;2.05;;
48621;SDS011;34421;48.944;9.460;2023-08-24T01:52:43;3.25;;;2.03;;
48621;SDS011;34421;48.944;9.460;2023-08-24T01:55:08;3.22;;;2.03;;
48621;SDS011;34421;48.944;9.460;2023-08-24T01:57:34;3.60;;;2.50;;
48621;SDS011;34421;48.944;9.460;2023-08-24T01:59:59;4.03;;;2.05;;
48621;SDS011;34421;48.944;9.460;2023-08-24T02:02:25;3.40;;;2.22;;
48621;SDS011;34421;48.944;9.460;2023-08-24T02:04:50;2.97;;;2.10;;
48621;SDS011;34421;48.944;9.460;2023-08-24T02:07:15;2.97;;;2.28;;
48621;SDS011;34421;48.944;9.460;2023-08-24T02:09:41;3.00;;;1.80;;
48621;SDS011;34421;48.944;9.460;2023-08-24T02:12:06;3.22;;;2.00;;
48621;SDS011;34421;48.944;9.460;2023-08-24T02:14:32;3.42;;;2.13;;
48621;SDS011;34421;48.944;9.460;2023-08-24T02:16:57;2.05;;;1.52;;
48621;SDS011;34421;48.944;9.460;2023-08-24T02:19:22;3.03;;;2.17;;
48621;SDS011;34421;48.944;9.460;2023-08-24T02:21:48;3.35;;;2.17;;
48621;SDS011;34421;48.944;9.460;2023-08-24T02:24:13;3.28;;;1.95;;
48621;SDS011;34421;48.944;9.460;2023-08-24T02:26:38;3.90;;;2.47;;
48621;SDS011;34421;48.944;9.460;2023-08-24T02:29:04;3.85;;;2.30;;
48621;SDS011;34421;48.944;9.460;2023-08-24T02:31:29;2.78;;;2.03;;
48621;SDS011;34421;48.944;9.460;2023-08-24T02:33:55;3.13;;;2.13;;
48621;SDS011;34421;48.944;9.460;2023-08-24T02:36:20;3.28;;;2.10;;
48621;SDS011;34421;48.944;9.460;2023-08-24T02:38:46;3.38;;;2.20;;
48621;SDS011;34421;48.944;9.460;2023-08-24T02:41:12;3.72;;;2.28;;
48621;SDS011;34421;48.944;9.460;2023-08-24T02:43:39;3.92;;;2.28;;
48621;SDS011;34421;48.944;9.460;2023-08-24T02:46:08;3.10;;;2.05;;
48621;SDS011;34421;48.944;9.460;2023-08-24T02:48:35;2.65;;;1.88;;
48621;SDS011;34421;48.944;9.460;2023-08-24T02:51:01;3.30;;;2.33;;
48621;SDS011;34421;48.944;9.460;2023-08-24T02:53:28;3.30;;;2.10;;
48621;SDS011;34421;48.944;9.460;2023-08-24T02:55:55;3.17;;;2.08;;
48621;SDS011;34421;48.944;9.460;2023-08-24T02:58:20;2.85;;;1.98;;
48621;SDS011;34421;48.944;9.460;2023-08-24T03:00:46;3.97;;;2.47;;
48621;SDS011;34421;48.944;9.460;2023-08-24T03:03:13;2.72;;;1.95;;
48621;SDS011;34421;48.944;9.460;2023-08-24T03:05:39;3.63;;;2.13;;
48621;SDS011;34421;48.944;9.460;2023-08-24T03:08:05;4.32;;;2.30;;
48621;SDS011;34421;48.944;9.460;2023-08-24T03:10:31;4.55;;;2.00;;
48621;SDS011;34421;48.944;9.460;2023-08-24T03:12:59;2.50;;;1.90;;
48621;SDS011;34421;48.944;9.460;2023-08-24T03:15:24;4.18;;;2.22;;
48621;SDS011;34421;48.944;9.460;2023-08-24T03:17:50;3.00;;;2.17;;
48621;SDS011;34421;48.944;9.460;2023-08-24T03:20:15;3.53;;;2.15;;
48621;SDS011;34421;48.944;9.460;2023-08-24T03:22:41;3.20;;;2.40;;
48621;SDS011;34421;48.944;9.460;2023-08-24T03:25:06;3.22;;;1.98;;
48621;SDS011;34421;48.944;9.460;2023-08-24T03:27:32;4.15;;;2.60;;
48621;SDS011;34421;48.944;9.460;2023-08-24T03:29:57;3.38;;;2.47;;
48621;SDS011;34421;48.944;9.460;2023-08-24T03:32:23;3.13;;;2.22;;
48621;SDS011;34421;48.944;9.460;2023-08-24T03:34:49;3.92;;;2.45;;
48621;SDS011;34421;48.944;9.460;2023-08-24T03:37:14;3.45;;;2.15;;
48621;SDS011;34421;48.944;9.460;2023-08-24T03:39:40;3.33;;;2.28;;
48621;SDS011;34421;48.944;9.460;2023-08-24T03:42:06;3.33;;;2.55;;
48621;SDS011;34421;48.944;9.460;2023-08-24T03:44:31;3.30;;;2.42;;
48621;SDS011;34421;48.944;9.460;2023-08-24T03:46:57;3.13;;;1.88;;
48621;SDS011;34421;48.944;9.460;2023-08-24T03:49:22;3.75;;;2.30;;
48621;SDS011;34421;48.944;9.460;2023-08-24T03:51:48;3.35;;;2.20;;
48621;SDS011;34421;48.944;9.460;2023-08-24T03:54:13;3.50;;;2.10;;
48621;SDS011;34421;48.944;9.460;2023-08-24T03:56:39;3.97;;;2.05;;
48621;SDS011;34421;48.944;9.460;2023-08-24T03:59:04;3.25;;;2.13;;
48621;SDS011;34421;48.944;9.460;2023-08-24T04:01:29;3.72;;;2.30;;
48621;SDS011;34421;48.944;9.460;2023-08-24T04:03:55;4.50;;;2.28;;
48621;SDS011;34421;48.944;9.460;2023-08-24T04:06:20;3.45;;;2.25;;
48621;SDS011;34421;48.944;9.460;2023-08-24T04:08:45;4.03;;;2.65;;
48621;SDS011;34421;48.944;9.460;2023-08-24T04:11:11;3.53;;;2.45;;
48621;SDS011;34421;48.944;9.460;2023-08-24T04:13:36;2.75;;;2.03;;
48621;SDS011;34421;48.944;9.460;2023-08-24T04:16:01;2.97;;;2.17;;
48621;SDS011;34421;48.944;9.460;2023-08-24T04:18:28;3.95;;;2.28;;
48621;SDS011;34421;48.944;9.460;2023-08-24T04:20:54;3.00;;;2.03;;
48621;SDS011;34421;48.944;9.460;2023-08-24T04:23:23;2.80;;;1.95;;
48621;SDS011;34421;48.944;9.460;2023-08-24T04:25:50;3.88;;;1.92;;
48621;SDS011;34421;48.944;9.460;2023-08-24T04:28:15;2.60;;;1.80;;
48621;SDS011;34421;48.944;9.460;2023-08-24T04:30:43;3.30;;;2.10;;
48621;SDS011;34421;48.944;9.460;2023-08-24T04:33:16;3.50;;;2.28;;
48621;SDS011;34421;48.944;9.460;2023-08-24T04:35:42;4.40;;;2.40;;
48621;SDS011;34421;48.944;9.460;2023-08-24T04:38:07;3.25;;;2.28;;
48621;SDS011;34421;48.944;9.460;2023-08-24T04:43:12;4.18;;;2.47;;
48621;SDS011;34421;48.944;9.460;2023-08-24T04:45:37;4.43;;;2.55;;
48621;SDS011;34421;48.944;9.460;2023-08-24T04:48:02;3.80;;;2.40;;
48621;SDS011;34421;48.944;9.460;2023-08-24T04:50:28;3.03;;;2.00;;
48621;SDS011;34421;48.944;9.460;2023-08-24T04:52:53;2.25;;;1.80;;
48621;SDS011;34421;48.944;9.460;2023-08-24T04:55:18;4.03;;;1.95;;
48621;SDS011;34421;48.944;9.460;2023-08-24T04:57:44;3.42;;;2.30;;
48621;SDS011;34421;48.944;9.460;2023-08-24T05:00:09;3.50;;;2.22;;
48621;SDS011;34421;48.944;9.460;2023-08-24T05:02:40;3.58;;;2.22;;
48621;SDS011;34421;48.944;9.460;2023-08-24T05:05:06;3.53;;;2.83;;
48621;SDS011;34421;48.944;9.460;2023-08-24T05:07:35;3.83;;;2.70;;
48621;SDS011;34421;48.944;9.460;2023-08-24T05:10:00;4.20;;;2.33;;
48621;SDS011;34421;48.944;9.460;2023-08-24T05:12:25;3.85;;;2.35;;
48621;SDS011;34421;48.944;9.460;2023-08-24T05:14:51;3.03;;;1.85;;
48621;SDS011;34421;48.944;9.460;2023-08-24T05:17:16;2.58;;;2.00;;
48621;SDS011;34421;48.944;9.460;2023-08-24T05:19:41;4.60;;;2.30;;
48621;SDS011;34421;48.944;9.460;2023-08-24T05:22:06;5.25;;;2.92;;
48621;SDS011;34421;48.944;9.460;2023-08-24T05:24:32;4.05;;;2.60;;
48621;SDS011;34421;48.944;9.460;2023-08-24T05:26:57;4.47;;;2.17;;
48621;SDS011;34421;48.944;9.460;2023-08-24T05:29:22;2.90;;;2.33;;
48621;SDS011;34421;48.944;9.460;2023-08-24T05:31:48;3.70;;;2.05;;
48621;SDS011;34421;48.944;9.460;2023-08-24T05:34:13;3.80;;;2.33;;
48621;SDS011;34421;48.944;9.460;2023-08-24T05:36:38;3.67;;;2.15;;
48621;SDS011;34421;48.944;9.460;2023-08-24T05:39:04;3.90;;;2.92;;
48621;SDS011;34421;48.944;9.460;2023-08-24T05:41:29;2.97;;;2.00;;
48621;SDS011;34421;48.944;9.460;2023-08-24T05:43:54;3.83;;;2.45;;
48621;SDS011;34421;48.944;9.460;2023-08-24T05:46:22;4.78;;;2.92;;
48621;SDS011;34421;48.944;9.460;2023-08-24T05:48:47;3.53;;;2.30;;
48621;SDS011;34421;48.944;9.460;2023-08-24T05:51:12;3.17;;;2.15;;
48621;SDS011;34421;48.944;9.460;2023-08-24T05:53:38;3.60;;;2.60;;
48621;SDS011;34421;48.944;9.460;2023-08-24T05:56:05;2.92;;;2.10;;
48621;SDS011;34421;48.944;9.460;2023-08-24T05:58:31;4.18;;;2.63;;
48621;SDS011;34421;48.944;9.460;2023-08-24T06:00:57;4.03;;;2.38;;
48621;SDS011;34421;48.944;9.460;2023-08-24T06:03:24;4.38;;;2.72;;
48621;SDS011;34421;48.944;9.460;2023-08-24T06:05:49;3.50;;;2.78;;
48621;SDS011;34421;48.944;9.460;2023-08-24T06:08:15;3.25;;;2.35;;
48621;SDS011;34421;48.944;9.460;2023-08-24T06:10:40;3.08;;;2.22;;
48621;SDS011;34421;48.944;9.460;2023-08-24T06:13:06;4.40;;;2.60;;
48621;SDS011;34421;48.944;9.460;2023-08-24T06:15:32;3.33;;;2.38;;
48621;SDS011;34421;48.944;9.460;2023-08-24T06:17:57;4.75;;;2.70;;
48621;SDS011;34421;48.944;9.460;2023-08-24T06:20:24;3.60;;;2.35;;
48621;SDS011;34421;48.944;9.460;2023-08-24T06:22:49;4.63;;;2.40;;
48621;SDS011;34421;48.944;9.460;2023-08-24T06:25:15;3.30;;;2.35;;
48621;SDS011;34421;48.944;9.460;2023-08-24T06:27:40;3.85;;;2.22;;
48621;SDS011;34421;48.944;9.460;2023-08-24T06:30:06;3.60;;;2.20;;
48621;SDS011;34421;48.944;9.460;2023-08-24T06:32:32;3.67;;;2.15;;
48621;SDS011;34421;48.944;9.460;2023-08-24T06:34:58;4.10;;;2.42;;
48621;SDS011;34421;48.944;9.460;2023-08-24T06:37:24;3.22;;;2.08;;
48621;SDS011;34421;48.944;9.460;2023-08-24T06:39:50;2.25;;;1.85;;
48621;SDS011;34421;48.944;9.460;2023-08-24T06:42:15;4.00;;;2.05;;
48621;SDS011;34421;48.944;9.460;2023-08-24T06:44:40;2.65;;;1.80;;
48621;SDS011;34421;48.944;9.460;2023-08-24T06:47:06;2.92;;;1.77;;
48621;SDS011;34421;48.944;9.460;2023-08-24T06:49:31;2.70;;;1.88;;
48621;SDS011;34421;48.944;9.460;2023-08-24T06:51:56;4.55;;;2.28;;
48621;SDS011;34421;48.944;9.460;2023-08-24T06:54:22;3.33;;;1.90;;
48621;SDS011;34421;48.944;9.460;2023-08-24T06:56:48;5.75;;;2.15;;
48621;SDS011;34421;48.944;9.460;2023-08-24T06:59:13;3.55;;;2.45;;
48621;SDS011;34421;48.944;9.460;2023-08-24T07:01:39;4.80;;;2.75;;
48621;SDS011;34421;48.944;9.460;2023-08-24T07:04:05;3.95;;;2.42;;
48621;SDS011;34421;48.944;9.460;2023-08-24T07:06:32;3.97;;;2.40;;
48621;SDS011;34421;48.944;9.460;2023-08-24T07:08:59;2.15;;;1.48;;
48621;SDS011;34421;48.944;9.460;2023-08-24T07:11:24;2.22;;;1.60;;
48621;SDS011;34421;48.944;9.460;2023-08-24T07:13:51;2.78;;;2.00;;
48621;SDS011;34421;48.944;9.460;2023-08-24T07:16:18;2.78;;;1.77;;
48621;SDS011;34421;48.944;9.460;2023-08-24T07:18:44;5.43;;;1.80;;
48621;SDS011;34421;48.944;9.460;2023-08-24T07:21:09;2.33;;;1.60;;
48621;SDS011;34421;48.944;9.460;2023-08-24T07:23:34;3.20;;;1.70;;
48621;SDS011;34421;48.944;9.460;2023-08-24T07:26:00;1.98;;;1.25;;
48621;SDS011;34421;48.944;9.460;2023-08-24T07:28:25;2.33;;;1.10;;
48621;SDS011;34421;48.944;9.460;2023-08-24T07:30:50;1.95;;;1.05;;
48621;SDS011;34421;48.944;9.460;2023-08-24T07:33:18;2.92;;;1.33;;
48621;SDS011;34421;48.944;9.460;2023-08-24T07:35:43;3.20;;;1.98;;
48621;SDS011;34421;48.944;9.460;2023-08-24T07:38:08;1.63;;;1.20;;
48621;SDS011;34421;48.944;9.460;2023-08-24T07:40:34;1.77;;;1.20;;
48621;SDS011;34421;48.944;9.460;2023-08-24T07:42:59;2.40;;;1.55;;
48621;SDS011;34421;48.944;9.460;2023-08-24T07:45:25;2.45;;;1.45;;
48621;SDS011;34421;48.944;9.460;2023-08-24T07:47:52;2.70;;;1.52;;
48621;SDS011;34421;48.944;9.460;2023-08-24T07:50:18;2.40;;;1.60;;
48621;SDS011;34421;48.944;9.460;2023-08-24T07:52:44;2.17;;;1.30;;
48621;SDS011;34421;48.944;9.460;2023-08-24T07:55:09;2.03;;;1.27;;
48621;SDS011;34421;48.944;9.460;2023-08-24T07:57:35;3.33;;;1.60;;
48621;SDS011;34421;48.944;9.460;2023-08-24T08:00:01;2.05;;;1.33;;
48621;SDS011;34421;48.944;9.460;2023-08-24T08:02:27;2.67;;;1.55;;
48621;SDS011;34421;48.944;9.460;2023-08-24T08:04:56;1.73;;;1.13;;
48621;SDS011;34421;48.944;9.460;2023-08-24T08:07:28;1.73;;;1.13;;
48621;SDS011;34421;48.944;9.460;2023-08-24T08:09:53;2.30;;;1.30;;
48621;SDS011;34421;48.944;9.460;2023-08-24T08:12:19;1.50;;;1.10;;
48621;SDS011;34421;48.944;9.460;2023-08-24T08:14:44;4.80;;;1.52;;
48621;SDS011;34421;48.944;9.460;2023-08-24T08:17:09;1.53;;;1.00;;
48621;SDS011;34421;48.944;9.460;2023-08-24T08:19:35;1.50;;;0.90;;
48621;SDS011;34421;48.944;9.460;2023-08-24T08:22:03;1.73;;;1.00;;
48621;SDS011;34421;48.944;9.460;2023-08-24T08:24:28;2.10;;;1.05;;
48621;SDS011;34421;48.944;9.460;2023-08-24T08:26:54;3.58;;;1.13;;
48621;SDS011;34421;48.944;9.460;2023-08-24T08:29:19;1.93;;;1.17;;
48621;SDS011;34421;48.944;9.460;2023-08-24T08:31:44;2.67;;;1.00;;
48621;SDS011;34421;48.944;9.460;2023-08-24T08:34:11;1.58;;;1.05;;
48621;SDS011;34421;48.944;9.460;2023-08-24T08:36:36;1.83;;;1.23;;
48621;SDS011;34421;48.944;9.460;2023-08-24T08:39:01;2.87;;;1.20;;
48621;SDS011;34421;48.944;9.460;2023-08-24T08:41:30;2.25;;;1.35;;
48621;SDS011;34421;48.944;9.460;2023-08-24T08:43:59;1.75;;;1.05;;
48621;SDS011;34421;48.944;9.460;2023-08-24T08:46:29;2.33;;;1.20;;
48621;SDS011;34421;48.944;9.460;2023-08-24T08:48:57;2.50;;;1.10;;
48621;SDS011;34421;48.944;9.460;2023-08-24T08:51:25;1.90;;;1.10;;
48621;SDS011;34421;48.944;9.460;2023-08-24T08:53:51;3.47;;;1.70;;
48621;SDS011;34421;48.944;9.460;2023-08-24T08:56:17;2.00;;;1.20;;
48621;SDS011;34421;48.944;9.460;2023-08-24T08:58:42;2.55;;;1.23;;
48621;SDS011;34421;48.944;9.460;2023-08-24T09:01:08;6.80;;;1.60;;
48621;SDS011;34421;48.944;9.460;2023-08-24T09:03:34;3.08;;;1.48;;
48621;SDS011;34421;48.944;9.460;2023-08-24T09:06:00;1.40;;;0.90;;
48621;SDS011;34421;48.944;9.460;2023-08-24T09:08:25;1.95;;;1.00;;
48621;SDS011;34421;48.944;9.460;2023-08-24T09:10:52;1.52;;;1.17;;
48621;SDS011;34421;48.944;9.460;2023-08-24T09:13:17;1.63;;;1.00;;
48621;SDS011;34421;48.944;9.460;2023-08-24T09:15:42;1.63;;;1.10;;
48621;SDS011;34421;48.944;9.460;2023-08-24T09:18:08;1.73;;;1.10;;
48621;SDS011;34421;48.944;9.460;2023-08-24T09:20:33;2.80;;;1.10;;
48621;SDS011;34421;48.944;9.460;2023-08-24T09:22:59;1.60;;;1.10;;
48621;SDS011;34421;48.944;9.460;2023-08-24T09:25:25;3.17;;;1.50;;
48621;SDS011;34421;48.944;9.460;2023-08-24T09:27:57;3.38;;;1.52;;
48621;SDS011;34421;48.944;9.460;2023-08-24T09:30:23;2.22;;;1.30;;
48621;SDS011;34421;48.944;9.460;2023-08-24T09:32:48;1.55;;;1.13;;
48621;SDS011;34421;48.944;9.460;2023-08-24T09:35:13;1.83;;;1.10;;
48621;SDS011;34421;48.944;9.460;2023-08-24T09:37:41;1.95;;;1.17;;
48621;SDS011;34421;48.944;9.460;2023-08-24T09:40:10;1.35;;;0.95;;
48621;SDS011;34421;48.944;9.460;2023-08-24T09:42:40;1.52;;;1.10;;
48621;SDS011;34421;48.944;9.460;2023-08-24T09:45:07;2.95;;;1.48;;
48621;SDS011;34421;48.944;9.460;2023-08-24T09:47:35;3.78;;;1.30;;
48621;SDS011;34421;48.944;9.460;2023-08-24T09:50:01;1.73;;;1.23;;
48621;SDS011;34421;48.944;9.460;2023-08-24T09:52:28;1.98;;;1.08;;
48621;SDS011;34421;48.944;9.460;2023-08-24T09:54:58;1.98;;;1.33;;
48621;SDS011;34421;48.944;9.460;2023-08-24T09:57:29;2.35;;;1.48;;
48621;SDS011;34421;48.944;9.460;2023-08-24T09:59:57;1.58;;;1.05;;
48621;SDS011;34421;48.944;9.460;2023-08-24T10:02:23;2.33;;;1.50;;
48621;SDS011;34421;48.944;9.460;2023-08-24T10:04:53;1.35;;;0.85;;
48621;SDS011;34421;48.944;9.460;2023-08-24T10:07:20;2.60;;;1.25;;
48621;SDS011;34421;48.944;9.460;2023-08-24T10:09:54;1.70;;;1.08;;
48621;SDS011;34421;48.944;9.460;2023-08-24T10:12:26;2.83;;;1.80;;
48621;SDS011;34421;48.944;9.460;2023-08-24T10:14:56;2.83;;;1.30;;
48621;SDS011;34421;48.944;9.460;2023-08-24T10:17:32;1.33;;;0.90;;
48621;SDS011;34421;48.944;9.460;2023-08-24T10:19:59;2.63;;;1.35;;
48621;SDS011;34421;48.944;9.460;2023-08-24T10:22:34;2.00;;;1.20;;
48621;SDS011;34421;48.944;9.460;2023-08-24T10:25:01;2.42;;;0.95;;
48621;SDS011;34421;48.944;9.460;2023-08-24T10:27:27;1.90;;;1.15;;
48621;SDS011;34421;48.944;9.460;2023-08-24T10:29:53;1.67;;;1.20;;
48621;SDS011;34421;48.944;9.460;2023-08-24T10:32:21;1.35;;;1.00;;
48621;SDS011;34421;48.944;9.460;2023-08-24T10:34:48;2.50;;;1.27;;
48621;SDS011;34421;48.944;9.460;2023-08-24T10:37:14;1.70;;;1.20;;
48621;SDS011;34421;48.944;9.460;2023-08-24T10:39:46;1.97;;;1.20;;
48621;SDS011;34421;48.944;9.460;2023-08-24T10:42:12;2.53;;;1.52;;
48621;SDS011;34421;48.944;9.460;2023-08-24T10:44:39;1.90;;;1.20;;
48621;SDS011;34421;48.944;9.460;2023-08-24T10:47:15;2.47;;;1.50;;
48621;SDS011;34421;48.944;9.460;2023-08-24T10:49:56;1.67;;;1.17;;
48621;SDS011;34421;48.944;9.460;2023-08-24T10:52:24;2.38;;;1.42;;
48621;SDS011;34421;48.944;9.460;2023-08-24T10:54:53;2.80;;;1.55;;
48621;SDS011;34421;48.944;9.460;2023-08-24T10:57:20;2.55;;;1.45;;
48621;SDS011;34421;48.944;9.460;2023-08-24T11:02:31;1.63;;;1.20;;
48621;SDS011;34421;48.944;9.460;2023-08-24T11:08:01;2.13;;;1.40;;
48621;SDS011;34421;48.944;9.460;2023-08-24T11:10:34;1.58;;;1.27;;
48621;SDS011;34421;48.944;9.460;2023-08-24T11:15:43;1.98;;;1.20;;
48621;SDS011;34421;48.944;9.460;2023-08-24T11:18:20;3.08;;;1.30;;
48621;SDS011;34421;48.944;9.460;2023-08-24T11:20:51;3.92;;;1.73;;
48621;SDS011;34421;48.944;9.460;2023-08-24T11:23:20;2.13;;;1.38;;
48621;SDS011;34421;48.944;9.460;2023-08-24T11:25:47;2.28;;;1.33;;
48621;SDS011;34421;48.944;9.460;2023-08-24T11:28:18;2.67;;;1.30;;
48621;SDS011;34421;48.944;9.460;2023-08-24T11:30:45;2.17;;;1.40;;
48621;SDS011;34421;48.944;9.460;2023-08-24T11:33:11;2.95;;;1.70;;
48621;SDS011;34421;48.944;9.460;2023-08-24T11:35:41;2.97;;;1.63;;
48621;SDS011;34421;48.944;9.460;2023-08-24T11:38:07;3.35;;;1.60;;
48621;SDS011;34421;48.944;9.460;2023-08-24T11:40:33;2.88;;;1.90;;
48621;SDS011;34421;48.944;9.460;2023-08-24T11:42:58;2.03;;;1.30;;
48621;SDS011;34421;48.944;9.460;2023-08-24T11:45:24;3.13;;;2.00;;
48621;SDS011;34421;48.944;9.460;2023-08-24T11:47:55;2.45;;;1.65;;
48621;SDS011;34421;48.944;9.460;2023-08-24T11:50:22;3.22;;;2.20;;
48621;SDS011;34421;48.944;9.460;2023-08-24T11:52:48;3.72;;;2.13;;
48621;SDS011;34421;48.944;9.460;2023-08-24T11:55:13;2.70;;;1.67;;
48621;SDS011;34421;48.944;9.460;2023-08-24T11:57:39;2.85;;;1.80;;
48621;SDS011;34421;48.944;9.460;2023-08-24T12:00:05;3.05;;;1.90;;
48621;SDS011;34421;48.944;9.460;2023-08-24T12:02:32;1.88;;;1.42;;
48621;SDS011;34421;48.944;9.460;2023-08-24T12:04:58;3.42;;;1.88;;
48621;SDS011;34421;48.944;9.460;2023-08-24T12:07:24;3.40;;;1.80;;
48621;SDS011;34421;48.944;9.460;2023-08-24T12:09:50;3.03;;;1.80;;
48621;SDS011;34421;48.944;9.460;2023-08-24T12:12:19;3.78;;;2.13;;
48621;SDS011;34421;48.944;9.460;2023-08-24T12:14:46;4.93;;;2.13;;
48621;SDS011;34421;48.944;9.460;2023-08-24T12:17:12;3.38;;;1.80;;
48621;SDS011;34421;48.944;9.460;2023-08-24T12:19:41;2.58;;;2.05;;
48621;SDS011;34421;48.944;9.460;2023-08-24T12:22:31;2.58;;;1.67;;
48621;SDS011;34421;48.944;9.460;2023-08-24T12:24:57;2.92;;;1.80;;
48621;SDS011;34421;48.944;9.460;2023-08-24T12:27:23;3.28;;;1.73;;
48621;SDS011;34421;48.944;9.460;2023-08-24T12:29:49;3.00;;;1.80;;
48621;SDS011;34421;48.944;9.460;2023-08-24T12:32:15;3.78;;;2.25;;
48621;SDS011;34421;48.944;9.460;2023-08-24T12:34:44;3.35;;;2.28;;
48621;SDS011;34421;48.944;9.460;2023-08-24T12:37:10;3.03;;;1.95;;
48621;SDS011;34421;48.944;9.460;2023-08-24T12:39:35;3.00;;;2.00;;
48621;SDS011;34421;48.944;9.460;2023-08-24T12:42:04;3.00;;;1.90;;
48621;SDS011;34421;48.944;9.460;2023-08-24T12:44:31;4.20;;;2.17;;
48621;SDS011;34421;48.944;9.460;2023-08-24T12:46:56;3.17;;;2.13;;
48621;SDS011;34421;48.944;9.460;2023-08-24T12:49:22;2.20;;;1.60;;
48621;SDS011;34421;48.944;9.460;2023-08-24T12:51:47;3.30;;;2.10;;
48621;SDS011;34421;48.944;9.460;2023-08-24T12:54:12;3.13;;;1.85;;
48621;SDS011;34421;48.944;9.460;2023-08-24T12:56:41;2.97;;;1.77;;
48621;SDS011;34421;48.944;9.460;2023-08-24T12:59:07;3.00;;;2.00;;
48621;SDS011;34421;48.944;9.460;2023-08-24T13:01:33;2.83;;;1.83;;
48621;SDS011;34421;48.944;9.460;2023-08-24T13:03:58;3.10;;;1.98;;
48621;SDS011;34421;48.944;9.460;2023-08-24T13:06:24;3.23;;;2.20;;
48621;SDS011;34421;48.944;9.460;2023-08-24T13:08:49;2.90;;;1.90;;
48621;SDS011;34421;48.944;9.460;2023-08-24T13:11:15;2.85;;;1.80;;
48621;SDS011;34421;48.944;9.460;2023-08-24T13:13:40;4.38;;;2.05;;
48621;SDS011;34421;48.944;9.460;2023-08-24T13:16:06;3.00;;;2.03;;
48621;SDS011;34421;48.944;9.460;2023-08-24T13:18:31;3.10;;;2.05;;
48621;SDS011;34421;48.944;9.460;2023-08-24T13:20:57;4.37;;;2.20;;
48621;SDS011;34421;48.944;9.460;2023-08-24T13:23:22;3.17;;;2.15;;
48621;SDS011;34421;48.944;9.460;2023-08-24T13:25:47;3.27;;;2.10;;
48621;SDS011;34421;48.944;9.460;2023-08-24T13:28:13;4.22;;;2.08;;
48621;SDS011;34421;48.944;9.460;2023-08-24T13:30:38;3.53;;;1.90;;
48621;SDS011;34421;48.944;9.460;2023-08-24T13:33:03;2.92;;;1.80;;
48621;SDS011;34421;48.944;9.460;2023-08-24T13:35:29;3.63;;;1.80;;
48621;SDS011;34421;48.944;9.460;2023-08-24T13:37:54;2.33;;;1.50;;
48621;SDS011;34421;48.944;9.460;2023-08-24T13:40:19;2.80;;;1.80;;
48621;SDS011;34421;48.944;9.460;2023-08-24T13:42:45;2.35;;;1.75;;
48621;SDS011;34421;48.944;9.460;2023-08-24T13:45:10;3.15;;;1.83;;
48621;SDS011;34421;48.944;9.460;2023-08-24T13:47:35;5.03;;;2.50;;
48621;SDS011;34421;48.944;9.460;2023-08-24T13:50:01;3.08;;;1.80;;
48621;SDS011;34421;48.944;9.460;2023-08-24T13:52:27;2.67;;;1.70;;
48621;SDS011;34421;48.944;9.460;2023-08-24T13:54:52;3.85;;;2.05;;
48621;SDS011;34421;48.944;9.460;2023-08-24T13:57:18;3.45;;;1.67;;
48621;SDS011;34421;48.944;9.460;2023-08-24T13:59:43;2.30;;;1.50;;
48621;SDS011;34421;48.944;9.460;2023-08-24T14:02:08;4.13;;;1.93;;
48621;SDS011;34421;48.944;9.460;2023-08-24T14:04:34;4.53;;;1.92;;
48621;SDS011;34421;48.944;9.460;2023-08-24T14:06:59;2.72;;;1.73;;
48621;SDS011;34421;48.944;9.460;2023-08-24T14:09:25;3.60;;;1.90;;
48621;SDS011;34421;48.944;9.460;2023-08-24T14:11:50;4.22;;;1.80;;
48621;SDS011;34421;48.944;9.460;2023-08-24T14:14:15;3.10;;;1.90;;
48621;SDS011;34421;48.944;9.460;2023-08-24T14:16:41;4.72;;;1.73;;
48621;SDS011;34421;48.944;9.460;2023-08-24T14:19:06;2.22;;;1.33;;
48621;SDS011;34421;48.944;9.460;2023-08-24T14:21:31;2.85;;;1.98;;
48621;SDS011;34421;48.944;9.460;2023-08-24T14:23:57;3.88;;;2.03;;
48621;SDS011;34421;48.944;9.460;2023-08-24T14:26:23;3.00;;;1.80;;
48621;SDS011;34421;48.944;9.460;2023-08-24T14:28:52;2.60;;;1.85;;
48621;SDS011;34421;48.944;9.460;2023-08-24T14:31:23;2.35;;;1.58;;
48621;SDS011;34421;48.944;9.460;2023-08-24T14:33:50;3.08;;;1.92;;
48621;SDS011;34421;48.944;9.460;2023-08-24T14:36:16;6.53;;;2.75;;
48621;SDS011;34421;48.944;9.460;2023-08-24T14:38:43;4.43;;;1.80;;
48621;SDS011;34421;48.944;9.460;2023-08-24T14:41:08;3.78;;;2.20;;
48621;SDS011;34421;48.944;9.460;2023-08-24T14:43:34;3.55;;;2.13;;
48621;SDS011;34421;48.944;9.460;2023-08-24T14:46:00;3.60;;;2.05;;
48621;SDS011;34421;48.944;9.460;2023-08-24T14:48:25;4.13;;;2.35;;
48621;SDS011;34421;48.944;9.460;2023-08-24T14:50:51;6.33;;;3.00;;
48621;SDS011;34421;48.944;9.460;2023-08-24T14:53:16;4.32;;;2.63;;
48621;SDS011;34421;48.944;9.460;2023-08-24T14:55:41;5.05;;;2.70;;
48621;SDS011;34421;48.944;9.460;2023-08-24T14:58:07;3.95;;;2.35;;
48621;SDS011;34421;48.944;9.460;2023-08-24T15:00:33;5.90;;;3.00;;
48621;SDS011;34421;48.944;9.460;2023-08-24T15:02:58;6.15;;;2.50;;